Hauptseite
METAR-TAF:

METAR-TAF

Flughäfen :

Emmen, Schweiz

Militärflugplatz Emmen

Breite: 47-05-32N, Länge: 8-18-16E, Höhe: 426 m

Beobachtung

Neuester Wetterbericht von vor 36 Minuten, um 10:50 UTC
Wind 1 kt aus unterschiedlichen Richtungen
Temperatur 8°C
Luftfeuchtigkeit 76%
Luftdruck 1015 hPa
Sichtweite 10 km oder mehr
Aufgelockert bewölkt in der Höhe von 9200 ft

METAR: LSME 231050Z AUTO VRB01KT 9999NDV SCT092 08/04 Q1015 RMK

Zeit: 12:26 (11:26 UTC)


TAF: fehlend

Wetterbeobachtungen und Prognosen von mehr als 4000 Flughäfen (METAR und TAF Bericht).

Die verfügbaren Stationen werden durch gelbe und rote Markierungen auf der Karte dargestellt.

Führen Sie die Maus auf sie, um den Namen der Station zu sehen.

Darauf klicken, um die Beobachtung von Wetterbeobachtungen und Prognosen zu sehen.

Um die Karte zu ändern : klicken Sie auf den grünen Tasten mit einem schwarzen Kreuz Zum Vergrößern, auf den grünen Button mit einem Gedankenstrich zu verkleinern, oder auf die grünen Pfeile für benachbarte Karten.


METAR-TAF: